Latest Weather Observations for Shark Bay Airport

IDW60801

Issued at 8:04 pm WST Sunday 28 August 2016 (issued every 30 minutes, with the page automatically refreshed every 10 minutes)

About weather observations | Map of weather stations | Latest weather observations for WA | Other Formats
Station Details ID: 006105 Name: SHARK BAY AIRPORT Lat: -25.89 Lon: 113.58 Height: 33.8 m
Data from the previous 72 hours. | See also: Recent months at Shark Bay Airport
Date/Time
WST
Temp
°C
App
Temp
°C
Dew
Point
°C
Rel
Hum
%
Delta-T
°C
Wind Press
QNH
hPa
Press
MSL
hPa
Rain since
9am
mm
Dir  Spd
km/h
Gust
km/h
Spd
kts
Gust
kts
28/08:00pm 16.3 14.3 11.5 73 2.6 S 13 20 7 11 1015.2 1015.2 0.2
28/07:30pm 16.5 14.4 11.0 70 2.9 S 13 19 7 10 1015.0 1015.0 0.2
28/07:00pm 16.6 14.1 11.1 70 3.0 S 15 20 8 11 1014.7 1014.7 0.2
28/06:30pm 16.7 14.3 11.4 71 2.9 S 15 20 8 11 1014.4 1014.4 0.2
28/06:00pm 17.1 13.9 11.2 68 3.2 S 19 24 10 13 1014.2 1014.2 0.2
28/05:30pm 17.4 13.4 10.3 63 3.8 SSW 22 35 12 19 1014.2 1014.2 0.2
28/05:00pm 18.4 14.6 11.0 62 4.0 SSW 22 30 12 16 1013.9 1013.9 0.2
28/04:30pm 18.7 14.8 10.8 60 4.3 SSW 22 32 12 17 1013.6 1013.6 0.2
28/04:00pm 19.2 15.6 12.0 63 4.0 SW 22 35 12 19 1013.6 1013.6 0.2
28/03:30pm 18.3 14.6 11.6 65 3.7 SSW 22 30 12 16 1013.6 1013.6 0.2
28/03:00pm 17.0 14.6 12.5 75 2.5 SW 17 24 9 13 1013.6 1013.6 0.2
28/02:30pm 18.1 15.6 12.3 69 3.2 WSW 17 24 9 13 1013.9 1013.9 0.2
28/02:00pm 17.2 16.1 13.1 77 2.3 WSW 11 19 6 10 1014.3 1014.3 0.2
28/01:30pm 16.9 13.2 12.6 76 2.4 SSW 24 32 13 17 1014.6 1014.6 0.2
28/01:00pm 19.3 15.6 12.6 65 3.8 SW 24 32 13 17 1014.7 1014.7 0.2
28/12:30pm 19.2 16.2 10.5 57 4.7 SW 17 24 9 13 1014.8 1014.8 0.2
28/12:00pm 19.2 15.6 11.7 62 4.1 SW 22 30 12 16 1015.3 1015.3 0.2
28/11:30am 19.6 16.5 10.3 55 5.0 SW 17 22 9 12 1015.3 1015.3 0.2
28/11:00am 18.8 16.9 11.9 64 3.8 WSW 13 22 7 12 1015.5 1015.5 0.0
28/10:30am 17.7 14.8 11.0 65 3.6 SW 17 24 9 13 1015.8 1015.8 0.0
28/10:00am 16.2 14.9 11.4 73 2.6 S 9 17 5 9 1016.0 1016.0 0.0
28/09:30am 17.3 13.9 9.0 58 4.3 SSW 17 26 9 14 1016.0 1016.0 0.0
28/09:00am 17.3 14.9 10.0 62 3.9 SSE 13 17 7 9 1015.9 1015.9 4.8
28/08:30am 16.5 13.5 9.4 63 3.7 S 15 20 8 11 1015.7 1015.7 4.8
28/08:00am 16.2 14.3 10.5 69 3.0 SSW 11 17 6 9 1015.2 1015.2 4.8
28/07:30am 14.5 13.3 10.3 76 2.2 S 7 9 4 5 1014.9 1014.9 4.8
28/07:00am 13.8 12.1 10.0 78 2.0 SSW 9 9 5 5 1014.6 1014.6 4.8
28/06:30am 13.7 12.6 10.5 81 1.7 SSW 7 9 4 5 1014.4 1014.4 4.8
28/06:00am 13.4 12.5 10.6 83 1.5 SSE 6 7 3 4 1014.2 1014.2 4.8
28/05:30am 13.4 11.9 10.4 82 1.6 SSE 9 9 5 5 1013.8 1013.8 4.8
28/05:00am 13.6 12.0 10.2 80 1.8 SSE 9 11 5 6 1013.5 1013.5 4.8
28/04:30am 13.8 10.4 9.3 74 2.3 S 17 22 9 12 1013.4 1013.4 4.8
28/04:00am 13.8 10.1 9.6 76 2.2 S 19 28 10 15 1013.4 1013.4 4.8
28/03:30am 14.1 11.2 9.7 75 2.3 SSW 15 19 8 10 1013.3 1013.3 4.8
28/03:00am 14.5 10.3 9.7 73 2.5 SSW 22 28 12 15 1013.3 1013.3 4.8
28/02:30am 14.7 10.5 8.4 66 3.2 SW 20 28 11 15 1013.5 1013.5 4.8
28/02:00am 14.4 12.0 10.0 75 2.3 SSW 13 15 7 8 1013.5 1013.5 4.8
28/01:30am 14.9 13.1 10.7 76 2.2 SW 11 17 6 9 1013.5 1013.5 4.8
28/01:00am 14.9 11.9 10.7 76 2.2 SSW 17 24 9 13 1013.6 1013.6 4.8
28/12:30am 14.7 12.0 11.7 82 1.6 SSW 17 22 9 12 1013.5 1013.5 4.8
28/12:00am 14.1 11.6 11.1 82 1.6 SSW 15 20 8 11 1013.5 1013.5 4.8
 
Date/Time
WST
Temp
°C
App
Temp
°C
Dew
Point
°C
Rel
Hum
%
Delta-T
°C
Wind Press
QNH
hPa
Press
MSL
hPa
Rain since
9am
mm
Dir  Spd
km/h
Gust
km/h
Spd
kts
Gust
kts
27/11:30pm 14.2 11.9 11.7 85 1.3 SSW 15 19 8 10 1013.7 1013.7 4.8
27/11:00pm 14.7 13.0 12.4 86 1.3 SSW 13 17 7 9 1013.6 1013.6 4.8
27/10:30pm 15.0 13.5 13.0 88 1.1 S 13 17 7 9 1013.7 1013.7 4.8
27/10:00pm 15.0 13.9 13.2 89 1.0 S 11 15 6 8 1013.8 1013.8 4.8
27/09:30pm 15.2 14.2 13.4 89 1.0 S 11 15 6 8 1013.7 1013.7 4.8
27/09:00pm 15.8 13.8 14.0 89 1.0 SSW 17 20 9 11 1013.7 1013.7 4.8
27/08:30pm 16.0 14.7 13.8 87 1.2 SW 13 24 7 13 1013.6 1013.6 4.4
27/08:00pm 16.3 14.3 13.8 85 1.4 SW 17 30 9 16 1013.1 1013.1 4.2
27/07:30pm 16.4 14.7 13.5 83 1.6 W 15 19 8 10 1012.7 1012.7 4.2
27/07:00pm 16.7 13.7 11.8 73 2.7 WSW 19 24 10 13 1012.5 1012.4 4.2
27/06:30pm 17.2 13.3 12.1 72 2.8 WSW 24 32 13 17 1012.1 1012.0 4.2
27/06:17pm 17.3 12.7 12.4 73 2.7 WSW 28 43 15 23 1012.1 1012.0 4.2
27/06:00pm 17.9 14.9 12.6 71 3.0 WSW 20 24 11 13 1011.9 1011.8 4.2
27/05:30pm 18.7 15.1 11.8 64 3.8 WSW 22 28 12 15 1011.6 1011.5 4.2
27/05:00pm 19.3 15.3 11.8 62 4.2 WSW 24 30 13 16 1011.3 1011.2 4.2
27/04:30pm 19.6 15.0 11.1 58 4.7 WSW 26 33 14 18 1011.3 1011.2 4.0
27/04:00pm 19.7 14.0 9.9 53 5.3 WSW 30 39 16 21 1011.1 1011.0 4.0
27/03:30pm 19.6 14.1 11.9 61 4.3 WSW 32 44 17 24 1011.1 1011.0 4.0
27/03:00pm 19.6 15.3 13.1 66 3.7 SW 28 39 15 21 1011.0 1010.9 4.0
27/02:30pm 18.4 15.4 14.7 79 2.1 WSW 24 32 13 17 1010.9 1010.8 4.0
27/02:00pm 18.2 16.1 15.3 83 1.7 WSW 20 28 11 15 1011.0 1010.9 4.0
27/01:30pm 18.2 16.2 15.5 84 1.6 W 20 26 11 14 1011.5 1011.4 4.0
27/01:00pm 17.9 16.3 15.9 88 1.2 W 19 24 10 13 1011.4 1011.3 4.0
27/12:30pm 17.2 15.4 15.4 89 1.1 W 19 24 10 13 1011.6 1011.5 3.6
27/12:00pm 17.2 15.4 15.9 92 0.8 SW 20 26 11 14 1012.0 1011.9 3.6
27/11:30am 17.3 16.5 16.2 93 0.7 WSW 15 20 8 11 1012.1 1012.0 3.2
27/11:00am 17.0 16.5 15.9 93 0.6 SW 13 17 7 9 1011.9 1011.8 2.6
27/10:30am 16.8 15.8 15.7 93 0.6 SW 15 19 8 10 1012.3 1012.2 2.0
27/10:00am 16.7 14.7 15.6 93 0.6 SW 20 26 11 14 1012.3 1012.2 0.6
27/09:30am 17.2 15.6 16.1 93 0.7 W 19 26 10 14 1012.2 1012.1 0.0
27/09:00am 16.8 15.8 15.7 93 0.6 WSW 15 22 8 12 1012.0 1011.9 7.4
27/08:30am 16.6 15.6 15.5 93 0.6 WSW 15 20 8 11 1011.6 1011.5 7.2
27/08:00am 16.5 14.1 15.4 93 0.6 SW 22 30 12 16 1011.3 1011.2 7.2
27/07:30am 16.7 14.3 15.4 92 0.8 SW 22 32 12 17 1011.0 1010.9 7.0
27/07:00am 17.5 15.8 16.2 92 0.8 SW 20 33 11 18 1010.3 1010.2 6.2
27/06:30am 17.7 16.2 16.2 91 0.9 W 19 24 10 13 1009.8 1009.7 5.4
27/06:00am 17.3 14.6 15.6 90 1.0 WNW 24 32 13 17 1009.4 1009.3 3.4
27/05:30am 17.3 12.6 14.9 86 1.4 WNW 33 54 18 29 1009.4 1009.3 2.2
27/05:24am 17.6 12.5 14.7 83 1.7 NW 35 54 19 29 1009.7 1009.6 1.6
27/05:21am 17.9 12.4 14.6 81 1.9 NW 37 54 20 29 1009.6 1009.5 1.4
27/05:13am 20.2 16.8 16.8 81 2.1 NNW 30 50 16 27 1008.7 1008.6 0.0
27/05:00am 20.6 18.0 16.8 79 2.3 NNW 26 37 14 20 1008.8 1008.7 0.0
27/04:30am 20.4 17.3 16.6 79 2.3 NNW 28 39 15 21 1008.6 1008.5 0.0
27/04:00am 20.2 17.4 16.4 79 2.3 N 26 37 14 20 1008.7 1008.6 0.0
27/03:30am 20.1 17.5 15.9 77 2.5 NNW 24 35 13 19 1008.9 1008.8 0.0
27/03:00am 20.1 17.8 15.7 76 2.6 NNW 22 30 12 16 1009.4 1009.3 0.0
27/02:30am 20.1 17.5 15.9 77 2.5 NNW 24 33 13 18 1009.8 1009.7 0.0
27/02:00am 20.0 18.0 15.6 76 2.6 NNW 20 28 11 15 1010.1 1010.0 0.0
27/01:30am 20.0 17.9 15.2 74 2.8 N 20 28 11 15 1010.4 1010.3 0.0
27/01:00am 20.3 18.1 14.9 71 3.2 NNW 20 26 11 14 1010.9 1010.8 0.0
27/12:30am 20.2 17.7 14.1 68 3.5 N 20 30 11 16 1011.1 1011.0 0.0
27/12:00am 20.4 17.4 13.8 66 3.8 NNW 22 30 12 16 1011.5 1011.4 0.0
 
Date/Time
WST
Temp
°C
App
Temp
°C
Dew
Point
°C
Rel
Hum
%
Delta-T
°C
Wind Press
QNH
hPa
Press
MSL
hPa
Rain since
9am
mm
Dir  Spd
km/h
Gust
km/h
Spd
kts
Gust
kts
26/11:30pm 20.9 17.9 13.6 63 4.2 NNW 22 33 12 18 1011.8 1011.7 0.0
26/11:00pm 20.8 17.9 12.8 60 4.5 NNW 20 28 11 15 1012.1 1012.0 0.0
26/10:30pm 20.7 17.8 12.9 61 4.4 NNW 20 26 11 14 1012.3 1012.2 0.0
26/10:00pm 20.4 17.7 12.9 62 4.3 NNW 19 24 10 13 1012.5 1012.4 0.0
26/09:30pm 19.8 17.5 13.0 65 3.9 NNW 17 24 9 13 1012.8 1012.8 0.0
26/09:00pm 19.2 17.0 13.2 68 3.4 N 17 22 9 12 1012.7 1012.7 0.0
26/08:30pm 18.8 16.4 12.8 68 3.4 N 17 20 9 11 1012.9 1012.9 0.0
26/08:00pm 19.0 16.8 13.2 69 3.3 N 17 24 9 13 1012.9 1012.9 0.0
26/07:30pm 19.2 17.0 13.4 69 3.3 NNW 17 24 9 13 1012.8 1012.8 0.0
26/07:00pm 19.6 17.1 13.5 68 3.5 NNW 19 26 10 14 1012.5 1012.4 0.0
26/06:30pm 20.1 17.5 13.1 64 4.0 NNW 19 24 10 13 1012.5 1012.4 0.0
26/06:00pm 21.1 18.2 12.8 59 4.7 NNW 20 32 11 17 1012.3 1012.2 0.0
26/05:30pm 22.2 18.4 12.5 54 5.5 NNW 24 35 13 19 1012.2 1012.1 0.0
26/05:00pm 23.2 18.8 12.8 52 6.0 NNW 28 39 15 21 1011.9 1011.8 0.0
26/04:30pm 24.1 19.8 12.1 47 6.8 NNW 26 39 14 21 1011.9 1011.8 0.0
26/04:00pm 24.7 19.8 11.3 43 7.6 NNW 28 37 15 20 1011.9 1011.8 0.0
26/03:30pm 25.0 19.9 10.5 40 8.1 NNW 28 39 15 21 1011.8 1011.7 0.0
26/03:00pm 26.0 20.2 9.4 35 9.1 NNW 30 43 16 23 1012.0 1011.9 0.0
26/02:30pm 25.8 20.1 8.3 33 9.4 NNW 28 41 15 22 1012.4 1012.3 0.0
26/02:00pm 26.4 20.3 6.4 28 10.5 NNW 28 41 15 22 1012.3 1012.2 0.0
26/01:30pm 26.5 20.3 8.0 31 9.9 NW 30 39 16 21 1012.8 1012.8 0.0
26/01:00pm 26.5 21.4 7.5 30 10.1 NNW 24 33 13 18 1013.2 1013.2 0.0
26/12:30pm 26.2 21.5 7.7 31 9.9 N 22 32 12 17 1013.9 1013.9 0.0
26/12:00pm 26.1 22.3 9.0 34 9.3 N 19 28 10 15 1014.4 1014.4 0.0
26/11:30am 25.3 21.5 7.4 32 9.5 NNW 17 28 9 15 1014.9 1014.9 0.0
26/11:00am 24.9 21.3 8.4 35 8.8 N 17 30 9 16 1015.3 1015.3 0.0
26/10:30am 24.3 19.8 6.1 31 9.3 NNE 19 28 10 15 1015.6 1015.6 0.0
26/10:00am 23.5 19.2 5.4 31 9.1 NNE 17 22 9 12 1015.4 1015.4 0.0
26/09:30am 22.7 18.3 4.7 31 8.9 NNE 17 24 9 13 1015.4 1015.4 0.0
26/09:00am 20.9 17.6 8.2 44 6.6 NE 15 20 8 11 1015.4 1015.4 0.0
26/08:30am 18.8 16.8 11.6 63 4.0 NE 13 17 7 9 1015.5 1015.5 0.0
26/08:00am 15.5 14.4 13.0 85 1.4 NNE 11 15 6 8 1015.2 1015.2 0.0
26/07:55am 14.8 13.6 12.8 88 1.1 NNE 11 15 6 8 1015.2 1015.2 0.0
26/07:30am 9.8 7.3 8.1 89 0.8 NE 11 13 6 7 1014.9 1014.9 0.0
26/07:00am 6.6 3.3 4.6 87 0.9 NE 11 13 6 7 1014.6 1014.6 0.0
26/06:30am 5.6 1.6 3.1 84 1.0 NE 13 13 7 7 1014.5 1014.5 0.0
26/06:00am 5.1 1.0 2.1 81 1.2 NNE 13 15 7 8 1014.3 1014.3 0.0
26/05:30am 5.4 1.2 1.9 78 1.4 NNE 13 15 7 8 1014.2 1014.2 0.0
26/05:00am 6.8 3.0 4.1 83 1.2 NE 13 13 7 7 1014.4 1014.4 0.0
26/04:30am 7.4 4.5 4.7 83 1.2 ENE 9 11 5 6 1014.3 1014.3 0.0
26/04:00am 8.3 5.6 5.6 83 1.2 ENE 9 9 5 5 1014.2 1014.2 0.0
26/03:30am 9.0 6.8 6.3 83 1.2 ENE 7 9 4 5 1014.2 1014.2 0.0
26/03:00am 9.6 7.2 6.9 83 1.3 E 9 11 5 6 1014.4 1014.4 0.0
26/02:30am 8.4 5.2 5.0 79 1.5 E 11 11 6 6 1014.6 1014.6 0.0
26/02:00am 10.3 7.9 7.0 80 1.6 SE 9 11 5 6 1014.8 1014.8 0.0
26/01:30am 11.0 8.3 7.3 78 1.8 SSE 11 13 6 7 1015.0 1015.0 0.0
26/01:00am 11.8 9.0 8.5 80 1.6 NNE 13 15 7 8 1015.4 1015.4 0.0
26/12:30am 12.1 9.7 8.6 79 1.7 SSW 11 11 6 6 1015.8 1015.8 0.0
26/12:00am 11.0 8.9 6.6 74 2.1 SW 7 9 4 5 1016.2 1016.2 0.0
 
Date/Time
WST
Temp
°C
App
Temp
°C
Dew
Point
°C
Rel
Hum
%
Delta-T
°C
Wind Press
QNH
hPa
Press
MSL
hPa
Rain since
9am
mm
Dir  Spd
km/h
Gust
km/h
Spd
kts
Gust
kts
25/11:30pm 10.7 9.6 5.3 69 2.5 CALM 0 2 0 1 1016.2 1016.2 0.0
25/11:00pm 11.4 9.1 5.9 69 2.6 WNW 7 7 4 4 1016.0 1016.0 0.0
25/10:30pm 12.6 10.1 6.6 67 2.9 W 9 11 5 6 1016.0 1016.0 0.0
25/10:00pm 12.8 9.7 5.7 62 3.3 WSW 11 13 6 7 1016.2 1016.2 0.0
25/09:30pm 13.4 10.2 5.3 58 3.8 WSW 11 13 6 7 1016.2 1016.2 0.0
25/09:00pm 13.6 10.3 4.7 55 4.1 WSW 11 11 6 6 1016.0 1016.0 0.0
25/08:30pm 13.1 10.3 5.3 59 3.6 W 9 11 5 6 1016.0 1016.0 0.0

Other Formats:

Comma delimited format used in spreadsheet applications
http://www.bom.gov.au/fwo/IDW60801/IDW60801.95402.axf

JavaScript Object Notation format (JSON) in row-major order
http://www.bom.gov.au/fwo/IDW60801/IDW60801.95402.json